Escribe el Código OACI del Aeropuerto

Buscar por Aeropuerto o Ciudad

Información Meteorológica Actual

GCRR | Lanzarote Airport

Lanzarote, Canary Islands, Spain

Última Actualización Hace 22 Minutos

Cielo Despejado

19 ºC de Temperatura

Vientos Moderados del Este

Temperatura

19 ºC

Temperatura del Punto de Rocío

16 ºC

Humedad Relativa

82.84 %

Dirección del Viento

Este (080º, Sin Variaciones de Consideración)

Velocidad del Viento

20 km/h (11 kt)

Ráfagas

No Hay

Visibilidad

Sin Reducciones de Consideración

Presión Reducida a Nivel del Mar

1023 hPa (Hectopascales)

Capas de Nubes

No Hay

METAR GCRR 071530Z 08011KT CAVOK 19/16 Q1023

Pronóstico Meteorológico

GCRR | Lanzarote Airport

Lanzarote, Canary Islands, Spain

Pronóstico válido para las próximas 23 Horas

A partir de este momento se espera:

Cielo Parcialmente Nublado

Vientos Moderados del NorEste

A partir de este momento se esperan 4 horas con períodos intermitentes de:

Cielo Mayormente Nublado

En 1 hora se espera el comienzo de 4 horas con períodos intermitentes de:

Vientos Leves a Moderados del Norte

Temperatura Máxima

23 ºC en 21 Horas

Temperatura Mínima

15 ºC en 14 Horas

TAF GCRR 071400Z 0715/0815 06010KT 9999 SCT030 TX23/0813Z TN15/0806Z PROB30 TEMPO 0715/0720 BKN012 PROB30 TEMPO 0717/0721 36007KT